Time;durP1;ratioP1;P1;durP2;ratioP2;P2;SDS_P1;SDS_P2;PMS_P1;PMS_P2;Temp;Humidity;BMP_temperature;BMP_pressure;BME280_temperature;BME280_humidity;BME280_pressure;Samples;Min_cycle;Max_cycle;Signal;HPM_P1;HPM_P2
2023/10/31 00:02:23;;;;;;;;;;;;;;;-140.72;100.00;60698.66;5016492;28;19917;-70
2023/10/31 00:04:48;;;;;;;;;;;;;;;-140.72;100.00;60696.63;5040373;28;19917;-70
2023/10/31 00:07:13;;;;;;;;;;;;;;;-140.72;100.00;60723.03;5053500;28;19971;-70
2023/10/31 00:09:39;;;;;;;;;;;;;;;-140.72;100.00;60716.94;5034295;28;19928;-71
2023/10/31 00:12:04;;;;;;;;;;;;;;;-140.72;100.00;60702.72;5020714;28;20306;-70
2023/10/31 00:14:29;;;;;;;;;;;;;;;-140.72;100.00;60682.38;5039062;28;19978;-70
2023/10/31 00:16:55;;;;;;;;;;;;;;;-140.72;100.00;60718.97;5036436;28;20444;-70
2023/10/31 00:19:20;;;;;;;;;;;;;;;-140.72;100.00;60696.63;5040774;28;20371;-70
2023/10/31 00:21:45;;;;;;;;;;;;;;;-140.72;100.00;60688.47;5039759;28;20356;-70
2023/10/31 00:24:10;;;;;;;;;;;;;;;-140.72;100.00;60682.38;5034390;28;20063;-70
2023/10/31 00:26:35;;;;;;;;;;;;;;;-140.72;100.00;60682.38;5036934;28;19947;-70
2023/10/31 00:29:01;;;;;;;;;;;;;;;-140.72;100.00;60666.13;5040836;28;20004;-70
2023/10/31 00:31:26;;;;;;;;;;;;;;;-140.72;100.00;60645.78;5037372;28;19997;-70
2023/10/31 00:33:51;;;;;;;;;;;;;;;-140.72;100.00;60672.22;5040293;28;20073;-70
2023/10/31 00:36:16;;;;;;;;;;;;;;;-140.72;100.00;60682.38;5040026;28;19925;-70
2023/10/31 00:38:42;;;;;;;;;;;;;;;-140.72;100.00;60696.63;5035015;28;20436;-70
2023/10/31 00:41:07;;;;;;;;;;;;;;;-140.72;100.00;60670.19;5015794;28;19921;-71
2023/10/31 00:43:32;;;;;;;;;;;;;;;-140.72;100.00;60682.38;5037838;28;20287;-70
2023/10/31 00:45:58;;;;;;;;;;;;;;;-140.72;100.00;60702.72;5037477;28;20011;-70
2023/10/31 00:48:23;;;;;;;;;;;;;;;-140.72;100.00;60708.81;5037486;28;19936;-70
2023/10/31 00:50:48;;;;;;;;;;;;;;;-140.72;100.00;60649.84;5029264;28;19921;-70
2023/10/31 00:53:14;;;;;;;;;;;;;;;-140.72;100.00;60672.22;5032620;28;19925;-70
2023/10/31 00:55:39;;;;;;;;;;;;;;;-140.72;100.00;60674.25;5019926;28;20550;-70
2023/10/31 00:58:05;;;;;;;;;;;;;;;-140.72;100.00;60684.41;5034582;28;19936;-70
2023/10/31 01:00:30;;;;;;;;;;;;;;;-140.72;100.00;60698.66;5034283;28;20027;-70
2023/10/31 01:02:55;;;;;;;;;;;;;;;-140.72;100.00;60698.66;5039387;28;19928;-68
2023/10/31 01:05:21;;;;;;;;;;;;;;;-140.72;100.00;60763.72;5038174;28;19944;-70
2023/10/31 01:07:46;;;;;;;;;;;;;;;-140.72;100.00;60737.28;5036835;28;19917;-70
2023/10/31 01:10:11;;;;;;;;;;;;;;;-140.72;100.00;60755.59;5030745;28;19928;-70
2023/10/31 01:12:36;;;;;;;;;;;;;;;-140.72;100.00;60739.31;5034775;28;19981;-71
2023/10/31 01:15:04;;;;;;;;;;;;;;;-140.72;100.00;60798.28;5038262;28;20035;-70
2023/10/31 01:17:30;;;;;;;;;;;;;;;-140.72;100.00;60777.94;5038475;28;20004;-70
2023/10/31 01:19:55;;;;;;;;;;;;;;;-140.72;100.00;60747.44;5032630;28;19965;-70
2023/10/31 01:22:20;;;;;;;;;;;;;;;-140.72;100.00;60816.59;5037705;28;20431;-70
2023/10/31 01:24:46;;;;;;;;;;;;;;;-140.72;100.00;60777.94;5045156;28;19971;-71
2023/10/31 01:27:11;;;;;;;;;;;;;;;-140.72;100.00;60792.19;5035267;28;19917;-70
2023/10/31 01:29:36;;;;;;;;;;;;;;;-140.72;100.00;60771.84;5047622;28;19944;-70
2023/10/31 01:32:01;;;;;;;;;;;;;;;-140.72;100.00;60826.75;5030267;28;20376;-70
2023/10/31 01:34:26;;;;;;;;;;;;;;;-140.72;100.00;60790.16;5033554;28;19928;-70
2023/10/31 01:36:53;;;;;;;;;;;;;;;-140.72;100.00;60828.78;5037518;28;19922;-70
2023/10/31 01:39:18;;;;;;;;;;;;;;;-140.72;100.00;60826.75;5042673;28;19917;-70
2023/10/31 01:41:43;;;;;;;;;;;;;;;-140.72;100.00;60796.25;5037403;28;19947;-70
2023/10/31 01:44:16;;;;;;;;;;;;;;;-140.72;100.00;60816.59;5043458;28;19921;-70
2023/10/31 01:46:41;;;;;;;;;;;;;;;-140.72;100.00;60826.75;5036718;28;19924;-71
2023/10/31 01:49:06;;;;;;;;;;;;;;;-140.72;100.00;60784.06;5032691;28;19936;-70
2023/10/31 01:51:31;;;;;;;;;;;;;;;-140.72;100.00;60784.06;5018990;28;19921;-70
2023/10/31 01:53:57;;;;;;;;;;;;;;;-140.72;100.00;60820.66;5028220;28;19960;-70
2023/10/31 01:56:23;;;;;;;;;;;;;;;-140.72;100.00;60800.31;5038323;28;19948;-70
2023/10/31 01:58:48;;;;;;;;;;;;;;;-140.72;100.00;60832.84;5039506;28;19983;-70
2023/10/31 02:01:13;;;;;;;;;;;;;;;-140.72;100.00;60828.78;5035204;28;20387;-70
2023/10/31 02:03:39;;;;;;;;;;;;;;;-140.72;100.00;60834.88;5034980;28;20388;-70
2023/10/31 02:06:04;;;;;;;;;;;;;;;-140.72;100.00;60792.19;5032120;28;19971;-70
2023/10/31 02:08:30;;;;;;;;;;;;;;;-140.72;100.00;60794.22;5032599;28;20358;-71
2023/10/31 02:11:03;;;;;;;;;;;;;;;-140.72;100.00;60806.41;5034567;28;19924;-71
2023/10/31 02:13:29;;;;;;;;;;;;;;;-140.72;100.00;60800.31;5037514;28;19921;-71
2023/10/31 02:15:54;;;;;;;;;;;;;;;-140.72;100.00;60816.59;5034047;28;20303;-70
2023/10/31 02:18:19;;;;;;;;;;;;;;;-140.72;100.00;60820.66;5030739;28;19955;-70
2023/10/31 02:20:45;;;;;;;;;;;;;;;-140.72;100.00;60802.34;5029709;28;19921;-70
2023/10/31 02:23:10;;;;;;;;;;;;;;;-140.72;100.00;60790.16;5036290;28;19921;-70
2023/10/31 02:25:35;;;;;;;;;;;;;;;-140.72;100.00;60857.25;5016459;28;19943;-70
2023/10/31 02:28:00;;;;;;;;;;;;;;;-140.72;100.00;60814.56;5021968;28;19939;-70
2023/10/31 02:30:26;;;;;;;;;;;;;;;-140.72;100.00;60828.78;5035000;28;19929;-70
2023/10/31 02:33:05;;;;;;;;;;;;;;;-140.72;100.00;60824.72;5030930;28;20399;-70
2023/10/31 02:35:30;;;;;;;;;;;;;;;-140.72;100.00;60812.53;5028366;28;19999;-70
2023/10/31 02:37:56;;;;;;;;;;;;;;;-140.72;100.00;60828.78;5031654;28;20083;-71
2023/10/31 02:40:22;;;;;;;;;;;;;;;-140.72;100.00;60822.69;5032246;28;19925;-70
2023/10/31 02:42:48;;;;;;;;;;;;;;;-140.72;100.00;60812.53;5035495;28;19928;-70
2023/10/31 02:45:35;;;;;;;;;;;;;;;-140.72;100.00;60786.09;5038100;28;20366;-70
2023/10/31 02:48:00;;;;;;;;;;;;;;;-140.72;100.00;60838.94;5037832;28;19948;-70
2023/10/31 02:50:25;;;;;;;;;;;;;;;-140.72;100.00;60840.97;5038514;28;19925;-70
2023/10/31 02:52:51;;;;;;;;;;;;;;;-140.72;100.00;60804.38;5019248;28;19960;-70
2023/10/31 02:55:16;;;;;;;;;;;;;;;-140.72;100.00;60855.22;5035672;28;19987;-70
2023/10/31 02:57:41;;;;;;;;;;;;;;;-140.72;100.00;60849.13;5039557;28;19963;-70
2023/10/31 03:00:06;;;;;;;;;;;;;;;-140.72;100.00;60861.31;5039030;28;19948;-70
2023/10/31 03:02:32;;;;;;;;;;;;;;;-140.72;100.00;60893.84;5041418;28;19975;-70
2023/10/31 03:04:57;;;;;;;;;;;;;;;-140.72;100.00;60869.44;5036361;28;19925;-70
2023/10/31 03:07:22;;;;;;;;;;;;;;;-140.72;100.00;60853.19;5035583;28;19922;-71
2023/10/31 03:09:48;;;;;;;;;;;;;;;-140.72;100.00;60861.31;5035624;28;20030;-73
2023/10/31 03:12:13;;;;;;;;;;;;;;;-140.72;100.00;60849.13;5035857;28;20024;-71
2023/10/31 03:14:38;;;;;;;;;;;;;;;-140.72;100.00;60814.56;5040027;28;19921;-70
2023/10/31 03:17:03;;;;;;;;;;;;;;;-140.72;100.00;60822.69;5038515;28;19932;-70
2023/10/31 03:19:28;;;;;;;;;;;;;;;-140.72;100.00;60790.16;5018504;28;19936;-70
2023/10/31 03:21:54;;;;;;;;;;;;;;;-140.72;100.00;60792.19;5032930;28;19936;-70
2023/10/31 03:24:19;;;;;;;;;;;;;;;-140.72;100.00;60755.59;5037296;28;19921;-70
2023/10/31 03:26:44;;;;;;;;;;;;;;;-140.72;100.00;60782.00;5033048;28;19921;-70
2023/10/31 03:29:09;;;;;;;;;;;;;;;-140.72;100.00;60723.03;5035235;28;20272;-70
2023/10/31 03:31:34;;;;;;;;;;;;;;;-140.72;100.00;60682.38;5036967;28;20382;-70
2023/10/31 03:34:00;;;;;;;;;;;;;;;-140.72;100.00;60690.50;5034665;28;19928;-70
2023/10/31 03:36:41;;;;;;;;;;;;;;;-140.72;100.00;60635.63;5034338;28;19964;-70
2023/10/31 03:39:06;;;;;;;;;;;;;;;-140.72;100.00;60617.31;5038488;28;19921;-70
2023/10/31 03:41:42;;;;;;;;;;;;;;;-140.72;100.00;60629.50;5027749;28;19944;-70
2023/10/31 03:44:07;;;;;;;;;;;;;;;-140.72;100.00;60660.00;5020275;28;20942;-71
2023/10/31 03:46:33;;;;;;;;;;;;;;;-140.72;100.00;60645.78;5038298;28;19960;-71
2023/10/31 03:48:58;;;;;;;;;;;;;;;-140.72;100.00;60578.69;5045251;28;19975;-71
2023/10/31 03:51:23;;;;;;;;;;;;;;;-140.72;100.00;60621.38;5054992;28;19920;-70
2023/10/31 03:53:48;;;;;;;;;;;;;;;-140.72;100.00;60596.97;5052083;28;20374;-71
2023/10/31 03:56:14;;;;;;;;;;;;;;;-140.72;100.00;60570.53;5054981;28;20442;-71
2023/10/31 03:58:41;;;;;;;;;;;;;;;-140.72;100.00;60576.66;5054312;28;19943;-71
2023/10/31 04:01:06;;;;;;;;;;;;;;;-140.72;100.00;60568.50;5053849;28;20011;-71
2023/10/31 04:03:31;;;;;;;;;;;;;;;-140.72;100.00;60548.19;5053103;28;20011;-71
2023/10/31 04:05:56;;;;;;;;;;;;;;;-140.72;100.00;60568.50;5058740;28;19924;-71
2023/10/31 04:08:21;;;;;;;;;;;;;;;-140.72;100.00;60550.22;5057107;28;19988;-71
2023/10/31 04:10:47;;;;;;;;;;;;;;;-140.72;100.00;60513.63;5085545;28;20016;-71
2023/10/31 04:13:12;;;;;;;;;;;;;;;-140.72;100.00;60517.69;5054620;28;19920;-70
2023/10/31 04:15:37;;;;;;;;;;;;;;;-140.72;100.00;60540.03;5054351;28;20363;-71
2023/10/31 04:18:03;;;;;;;;;;;;;;;-140.72;100.00;60509.53;5053113;28;20024;-70
2023/10/31 04:20:28;;;;;;;;;;;;;;;-140.72;100.00;60497.34;5053737;28;20047;-71
2023/10/31 04:22:54;;;;;;;;;;;;;;;-140.72;100.00;60499.38;5047088;28;19947;-71
2023/10/31 04:25:19;;;;;;;;;;;;;;;-140.72;100.00;60519.72;5047854;28;19960;-71
2023/10/31 04:27:44;;;;;;;;;;;;;;;-140.72;100.00;60485.16;5056121;28;19959;-70
2023/10/31 04:30:10;;;;;;;;;;;;;;;-140.72;100.00;60458.72;5054561;28;20066;-70
2023/10/31 04:32:35;;;;;;;;;;;;;;;-140.72;100.00;60468.88;5055010;28;19968;-71
2023/10/31 04:35:00;;;;;;;;;;;;;;;-140.72;100.00;60495.31;5054829;28;19921;-71
2023/10/31 04:37:26;;;;;;;;;;;;;;;-140.72;100.00;60507.50;5050330;28;19921;-71
2023/10/31 04:39:51;;;;;;;;;;;;;;;-140.72;100.00;60442.44;5053309;28;19921;-71
2023/10/31 04:42:16;;;;;;;;;;;;;;;-140.72;100.00;60458.72;5054553;28;20437;-71
2023/10/31 04:44:41;;;;;;;;;;;;;;;-140.72;100.00;60460.75;5060147;28;19940;-74
2023/10/31 04:47:07;;;;;;;;;;;;;;;-140.72;100.00;60511.59;5058211;28;20351;-71
2023/10/31 04:49:34;;;;;;;;;;;;;;;-140.72;100.00;60434.31;5058065;28;19924;-69
2023/10/31 04:51:59;;;;;;;;;;;;;;;-140.72;100.00;60458.72;5054041;28;19921;-70
2023/10/31 04:54:24;;;;;;;;;;;;;;;-140.72;100.00;60472.94;5054668;28;20823;-70
2023/10/31 04:56:50;;;;;;;;;;;;;;;-140.72;100.00;60489.22;5051891;28;19927;-70
2023/10/31 04:59:15;;;;;;;;;;;;;;;-140.72;100.00;60483.13;5056964;28;19920;-70
2023/10/31 05:01:40;;;;;;;;;;;;;;;-140.72;100.00;60458.72;5053928;28;20051;-70
2023/10/31 05:04:05;;;;;;;;;;;;;;;-140.72;100.00;60479.06;5056758;28;19963;-70
2023/10/31 05:06:31;;;;;;;;;;;;;;;-140.72;100.00;60477.00;5050199;28;20372;-70
2023/10/31 05:08:56;;;;;;;;;;;;;;;-140.72;100.00;60511.59;5051775;28;19932;-70
2023/10/31 05:11:21;;;;;;;;;;;;;;;-140.72;100.00;60513.63;5048726;28;19929;-70
2023/10/31 05:13:46;;;;;;;;;;;;;;;-140.72;100.00;60507.50;5053736;28;19931;-71
2023/10/31 05:16:12;;;;;;;;;;;;;;;-140.72;100.00;60483.13;5048242;28;20380;-69
2023/10/31 05:18:37;;;;;;;;;;;;;;;-140.72;100.00;60481.09;5052060;28;19921;-71
2023/10/31 05:21:03;;;;;;;;;;;;;;;-140.72;100.00;60507.50;5054842;28;20325;-71
2023/10/31 05:23:28;;;;;;;;;;;;;;;-140.72;100.00;60452.63;5062950;28;19932;-73
2023/10/31 05:25:53;;;;;;;;;;;;;;;-140.72;100.00;60477.00;5053633;28;19925;-76
2023/10/31 05:28:18;;;;;;;;;;;;;;;-140.72;100.00;60507.50;5052594;28;19940;-70
2023/10/31 05:30:43;;;;;;;;;;;;;;;-140.72;100.00;60481.09;5055275;28;20402;-72
2023/10/31 05:33:09;;;;;;;;;;;;;;;-140.72;100.00;60499.38;5051716;28;19917;-74
2023/10/31 05:35:35;;;;;;;;;;;;;;;-140.72;100.00;60513.63;5074326;28;19920;-71
2023/10/31 05:38:00;;;;;;;;;;;;;;;-140.72;100.00;60519.72;5039287;28;19926;-69
2023/10/31 05:40:35;;;;;;;;;;;;;;;-140.72;100.00;60511.59;5055872;28;19975;-70
2023/10/31 05:43:00;;;;;;;;;;;;;;;-140.72;100.00;60548.19;5042293;28;19917;-72
2023/10/31 05:45:25;;;;;;;;;;;;;;;-140.72;100.00;60515.66;5055792;28;20028;-70
2023/10/31 05:47:50;;;;;;;;;;;;;;;-140.72;100.00;60562.41;5082556;28;20020;-71
2023/10/31 05:50:15;;;;;;;;;;;;;;;-140.72;100.00;60596.97;5051766;28;19928;-71
2023/10/31 05:52:41;;;;;;;;;;;;;;;-140.72;100.00;60578.69;5051130;28;20011;-72
2023/10/31 05:55:06;;;;;;;;;;;;;;;-140.72;100.00;60603.09;5050053;28;19960;-71
2023/10/31 05:57:31;;;;;;;;;;;;;;;-140.72;100.00;60584.78;5052004;28;20465;-68
2023/10/31 05:59:57;;;;;;;;;;;;;;;-140.72;100.00;60584.78;5051498;28;20011;-71
2023/10/31 06:02:22;;;;;;;;;;;;;;;-140.72;100.00;60578.69;5048742;28;19925;-73
2023/10/31 06:04:47;;;;;;;;;;;;;;;-140.72;100.00;60601.03;5053000;28;19917;-71
2023/10/31 06:07:12;;;;;;;;;;;;;;;-140.72;100.00;60568.50;5054779;28;20007;-71
2023/10/31 06:09:38;;;;;;;;;;;;;;;-140.72;100.00;60578.69;5054223;28;19960;-68
2023/10/31 06:12:03;;;;;;;;;;;;;;;-140.72;100.00;60609.19;5050214;28;19928;-72
2023/10/31 06:14:28;;;;;;;;;;;;;;;-140.72;100.00;60568.50;5054671;28;19920;-69
2023/10/31 06:16:54;;;;;;;;;;;;;;;-140.72;100.00;60588.84;5049870;28;20017;-69
2023/10/31 06:19:19;;;;;;;;;;;;;;;-140.72;100.00;60605.13;5051579;28;19917;-69
2023/10/31 06:21:45;;;;;;;;;;;;;;;-140.72;100.00;60566.47;5054639;28;19921;-70
2023/10/31 06:24:10;;;;;;;;;;;;;;;-140.72;100.00;60578.69;5046072;28;19944;-73
2023/10/31 06:26:36;;;;;;;;;;;;;;;-140.72;100.00;60582.75;5052067;28;20334;-72
2023/10/31 06:29:01;;;;;;;;;;;;;;;-140.72;100.00;60570.53;5053610;28;19921;-69
2023/10/31 06:31:26;;;;;;;;;;;;;;;-140.72;100.00;60592.91;5056240;28;19932;-69
2023/10/31 06:33:52;;;;;;;;;;;;;;;-140.72;100.00;60580.72;5055422;28;20362;-69
2023/10/31 06:36:17;;;;;;;;;;;;;;;-140.72;100.00;60582.75;5051262;28;19927;-70
2023/10/31 06:38:42;;;;;;;;;;;;;;;-140.72;100.00;60580.72;5060291;28;20287;-70
2023/10/31 06:41:08;;;;;;;;;;;;;;;-140.72;100.00;60609.19;5052015;28;19921;-69
2023/10/31 06:43:34;;;;;;;;;;;;;;;-140.72;100.00;60613.25;5050522;28;19960;-71
2023/10/31 06:46:00;;;;;;;;;;;;;;;-140.72;100.00;60574.63;5051113;28;19936;-73
2023/10/31 06:48:25;;;;;;;;;;;;;;;-140.72;100.00;60605.13;5050607;28;20310;-74
2023/10/31 06:50:51;;;;;;;;;;;;;;;-140.72;100.00;60605.13;5054775;28;19921;-71
2023/10/31 06:53:16;;;;;;;;;;;;;;;-140.72;100.00;60627.47;5089196;28;20239;-77
2023/10/31 06:55:41;;;;;;;;;;;;;;;-140.72;100.00;60605.13;5052161;28;19931;-73
2023/10/31 06:58:06;;;;;;;;;;;;;;;-140.72;100.00;60596.97;5050198;28;19920;-72
2023/10/31 07:00:31;;;;;;;;;;;;;;;-140.72;100.00;60611.22;5075183;28;19931;-71
2023/10/31 07:02:58;;;;;;;;;;;;;;;-140.72;100.00;60609.19;5048850;28;19928;-71
2023/10/31 07:05:23;;;;;;;;;;;;;;;-140.72;100.00;60655.94;5080496;28;19918;-71
2023/10/31 07:07:49;;;;;;;;;;;;;;;-140.72;100.00;60666.13;5042765;28;19920;-70
2023/10/31 07:10:14;;;;;;;;;;;;;;;-140.72;100.00;60657.97;5075166;28;19923;-71
2023/10/31 07:12:39;;;;;;;;;;;;;;;-140.72;100.00;60666.13;5066848;28;19972;-71
2023/10/31 07:15:05;;;;;;;;;;;;;;;-140.72;100.00;60662.03;5046035;28;20307;-71
2023/10/31 07:17:30;;;;;;;;;;;;;;;-140.72;100.00;60706.78;5047443;28;19940;-71
2023/10/31 07:19:55;;;;;;;;;;;;;;;-140.72;100.00;60759.66;5046954;28;19921;-70
2023/10/31 07:22:22;;;;;;;;;;;;;;;-140.72;100.00;60725.09;5047229;28;19917;-70
2023/10/31 07:24:48;;;;;;;;;;;;;;;-140.72;100.00;60745.41;5047446;28;19921;-70
2023/10/31 07:27:13;;;;;;;;;;;;;;;-140.72;100.00;60745.41;5046401;28;19944;-70
2023/10/31 07:29:39;;;;;;;;;;;;;;;-140.72;100.00;60759.66;5039477;28;20059;-70
2023/10/31 07:32:04;;;;;;;;;;;;;;;-140.72;100.00;60814.56;5045089;28;19927;-70
2023/10/31 07:34:29;;;;;;;;;;;;;;;-140.72;100.00;60767.78;5049899;28;19924;-71
2023/10/31 07:36:56;;;;;;;;;;;;;;;-140.72;100.00;60751.50;5043611;28;19917;-70
2023/10/31 07:39:21;;;;;;;;;;;;;;;-140.72;100.00;60759.66;5050486;28;19921;-71
2023/10/31 07:41:46;;;;;;;;;;;;;;;-140.72;100.00;60753.56;5039631;28;19980;-74
2023/10/31 07:44:12;;;;;;;;;;;;;;;-140.72;100.00;60735.25;5041722;28;20409;-75
2023/10/31 07:46:37;;;;;;;;;;;;;;;-140.72;100.00;60731.19;5064755;28;19929;-71
2023/10/31 07:49:03;;;;;;;;;;;;;;;-140.72;100.00;60745.41;5049306;28;19987;-71
2023/10/31 07:51:28;;;;;;;;;;;;;;;-140.72;100.00;60716.94;5050461;28;19920;-71
2023/10/31 07:53:53;;;;;;;;;;;;;;;-140.72;100.00;60743.38;5060069;28;20248;-73
2023/10/31 07:56:22;;;;;;;;;;;;;;;-140.72;100.00;60706.78;5053611;28;20398;-71
2023/10/31 07:58:48;;;;;;;;;;;;;;;-140.72;100.00;60702.72;5051486;28;19921;-71
2023/10/31 08:01:13;;;;;;;;;;;;;;;-140.72;100.00;60698.66;5054704;28;20007;-73
2023/10/31 08:03:38;;;;;;;;;;;;;;;-140.72;100.00;60678.31;5051183;28;20007;-71
2023/10/31 08:06:05;;;;;;;;;;;;;;;-140.72;100.00;60664.09;5052671;28;20180;-71
2023/10/31 08:08:30;;;;;;;;;;;;;;;-140.72;100.00;60637.66;5053595;28;19952;-71
2023/10/31 08:10:57;;;;;;;;;;;;;;;-140.72;100.00;60615.28;5051708;28;20011;-71
2023/10/31 08:13:22;;;;;;;;;;;;;;;-140.72;100.00;60540.03;5049982;28;20329;-71
2023/10/31 08:15:47;;;;;;;;;;;;;;;-140.72;100.00;60566.47;5050838;28;19917;-71
2023/10/31 08:18:12;;;;;;;;;;;;;;;-140.72;100.00;60560.38;5058042;28;20016;-71
2023/10/31 08:20:38;;;;;;;;;;;;;;;-140.72;100.00;60515.66;5055863;28;19916;-71
2023/10/31 08:23:03;;;;;;;;;;;;;;;-140.72;100.00;60519.72;5048186;28;19932;-71
2023/10/31 08:25:28;;;;;;;;;;;;;;;-140.72;100.00;60487.19;5057421;28;19943;-71
2023/10/31 08:27:53;;;;;;;;;;;;;;;-140.72;100.00;60531.91;5061662;28;19925;-71
2023/10/31 08:30:20;;;;;;;;;;;;;;;-140.72;100.00;60556.31;5057431;28;19920;-75
2023/10/31 08:32:45;;;;;;;;;;;;;;;-140.72;100.00;60523.78;5061247;28;19947;-71
2023/10/31 08:35:10;;;;;;;;;;;;;;;-140.72;100.00;60576.66;5056265;28;19924;-71
2023/10/31 08:37:36;;;;;;;;;;;;;;;-140.72;100.00;60580.72;5052891;28;19925;-71
2023/10/31 08:40:03;;;;;;;;;;;;;;;-140.72;100.00;60580.72;5060874;28;20336;-71
2023/10/31 08:42:28;;;;;;;;;;;;;;;-140.72;100.00;60584.78;5061858;28;20291;-71
2023/10/31 08:44:53;;;;;;;;;;;;;;;-140.72;100.00;60533.94;5064102;28;19924;-71
2023/10/31 08:47:19;;;;;;;;;;;;;;;-140.72;100.00;60456.69;5059246;28;19965;-71
2023/10/31 08:49:44;;;;;;;;;;;;;;;-140.72;100.00;60326.56;5055474;28;20000;-71
2023/10/31 08:52:09;;;;;;;;;;;;;;;-140.72;100.00;60202.53;5060366;28;19917;-71
2023/10/31 08:54:34;;;;;;;;;;;;;;;-140.72;100.00;60098.84;5054797;28;19921;-71
2023/10/31 08:56:59;;;;;;;;;;;;;;;-140.72;100.00;60033.78;5057353;28;19925;-73
2023/10/31 08:59:25;;;;;;;;;;;;;;;-140.72;100.00;59976.88;5051885;28;19921;-74
2023/10/31 09:01:50;;;;;;;;;;;;;;;-140.72;100.00;59877.25;5057729;28;20042;-71
2023/10/31 09:04:15;;;;;;;;;;;;;;;-140.72;100.00;59800.00;5055162;28;19928;-71
2023/10/31 09:06:40;;;;;;;;;;;;;;;-140.72;100.00;59753.25;5052180;28;19921;-71
2023/10/31 09:09:06;;;;;;;;;;;;;;;-140.72;100.00;59696.31;5055179;28;20272;-72
2023/10/31 09:11:31;;;;;;;;;;;;;;;-140.72;100.00;59667.88;5061036;28;19917;-71
2023/10/31 09:13:56;;;;;;;;;;;;;;;-140.72;100.00;59659.72;5056825;28;20383;-74
2023/10/31 09:16:21;;;;;;;;;;;;;;;-140.72;100.00;59653.63;5058930;28;19924;-71
2023/10/31 09:18:47;;;;;;;;;;;;;;;-140.72;100.00;59594.69;5061873;28;19928;-71
2023/10/31 09:21:12;;;;;;;;;;;;;;;-140.72;100.00;59521.50;5071060;28;20096;-71
2023/10/31 09:23:37;;;;;;;;;;;;;;;-140.72;100.00;59474.75;5054252;28;19920;-71
2023/10/31 09:26:03;;;;;;;;;;;;;;;-140.72;100.00;59336.53;5067400;28;19916;-71
2023/10/31 09:28:28;;;;;;;;;;;;;;;-140.72;100.00;59210.50;5058180;28;19972;-71
2023/10/31 09:30:53;;;;;;;;;;;;;;;-140.72;100.00;59049.94;5058350;28;20398;-71
2023/10/31 09:33:18;;;;;;;;;;;;;;;-140.72;100.00;58911.72;5057624;28;19921;-71
2023/10/31 09:35:44;;;;;;;;;;;;;;;-140.72;100.00;58806.03;5054169;28;20294;-71
2023/10/31 09:38:09;;;;;;;;;;;;;;;-140.72;100.00;58690.19;5056979;28;19996;-71
2023/10/31 09:40:37;;;;;;;;;;;;;;;-140.72;100.00;58629.22;5051065;28;19917;-71
2023/10/31 09:43:02;;;;;;;;;;;;;;;-140.72;100.00;58519.47;5061815;28;19987;-71
2023/10/31 09:45:27;;;;;;;;;;;;;;;-140.72;100.00;58525.56;5051482;28;19962;-71
2023/10/31 09:47:53;;;;;;;;;;;;;;;-140.72;100.00;58537.75;5082931;28;19917;-71
2023/10/31 09:50:18;;;;;;;;;;;;;;;-140.72;100.00;58507.28;5046931;28;19963;-71
2023/10/31 09:52:44;;;;;;;;;;;;;;;-140.72;100.00;58515.41;5049763;28;19925;-71
2023/10/31 09:55:10;;;;;;;;;;;;;;;-140.72;100.00;58560.13;5050966;28;20082;-71
2023/10/31 09:57:35;;;;;;;;;;;;;;;-140.72;100.00;58659.69;5047226;28;19963;-72
2023/10/31 10:00:01;;;;;;;;;;;;;;;-140.72;100.00;58702.38;5053468;28;20279;-73
2023/10/31 10:02:26;;;;;;;;;;;;;;;-140.72;100.00;58698.31;5055566;28;19923;-77
2023/10/31 10:04:51;;;;;;;;;;;;;;;-140.72;100.00;58728.81;5053214;28;19921;-74
2023/10/31 10:07:17;;;;;;;;;;;;;;;-140.72;100.00;58724.72;5051533;28;20232;-77
2023/10/31 10:09:43;;;;;;;;;;;;;;;-140.72;100.00;58702.38;5050939;28;19975;-74
2023/10/31 10:12:11;;;;;;;;;;;;;;;-140.72;100.00;58706.44;5054513;28;19917;-74
2023/10/31 10:14:38;;;;;;;;;;;;;;;-140.72;100.00;58698.31;5046674;28;19974;-74
2023/10/31 10:17:13;;;;;;;;;;;;;;;-140.72;100.00;58692.22;5051837;28;20028;-74
2023/10/31 10:19:38;;;;;;;;;;;;;;;-140.72;100.00;58714.56;5051525;28;19921;-74
2023/10/31 10:22:04;;;;;;;;;;;;;;;-140.72;100.00;58730.84;5067711;28;20337;-74
2023/10/31 10:24:29;;;;;;;;;;;;;;;-140.72;100.00;58706.44;5053255;28;20367;-74
2023/10/31 10:26:54;;;;;;;;;;;;;;;-140.72;100.00;58736.94;5034420;28;19917;-74
2023/10/31 10:29:20;;;;;;;;;;;;;;;-140.72;100.00;58747.09;5036327;28;19917;-74
2023/10/31 10:31:45;;;;;;;;;;;;;;;-140.72;100.00;58761.31;5048191;28;19941;-74
2023/10/31 10:34:12;;;;;;;;;;;;;;;-140.72;100.00;58824.31;5057617;28;19916;-74
2023/10/31 10:36:38;;;;;;;;;;;;;;;-140.72;100.00;58864.97;5053421;28;19928;-74
2023/10/31 10:39:05;;;;;;;;;;;;;;;-140.72;100.00;58938.13;5052022;28;20014;-74
2023/10/31 10:41:33;;;;;;;;;;;;;;;-140.72;100.00;59007.25;5051439;28;19925;-74
2023/10/31 10:44:07;;;;;;;;;;;;;;;-140.72;100.00;59114.97;5051338;28;19921;-74
2023/10/31 10:46:36;;;;;;;;;;;;;;;-140.72;100.00;59153.59;5050898;28;19924;-74
2023/10/31 10:49:06;;;;;;;;;;;;;;;-140.72;100.00;59204.41;5050199;28;19974;-74
2023/10/31 10:51:45;;;;;;;;;;;;;;;-140.72;100.00;59263.34;5052369;28;19963;-75
2023/10/31 10:54:14;;;;;;;;;;;;;;;-140.72;100.00;59324.31;5042651;28;19917;-74
2023/10/31 10:56:42;;;;;;;;;;;;;;;-140.72;100.00;59397.50;5047749;28;20276;-74
2023/10/31 10:59:48;;;;;;;;;;;;;;;-140.72;100.00;59533.69;5056693;28;19999;-73
2023/10/31 11:02:29;;;;;;;;;;;;;;;-140.72;100.00;59608.91;4996408;28;19937;-75
2023/10/31 11:04:56;;;;;;;;;;;;;;;-140.72;100.00;59708.53;5051652;28;19923;-75
2023/10/31 11:07:23;;;;;;;;;;;;;;;-140.72;100.00;59739.00;5050836;28;19951;-74
2023/10/31 11:09:49;;;;;;;;;;;;;;;-140.72;100.00;59822.34;5045939;28;19940;-74
2023/10/31 11:12:15;;;;;;;;;;;;;;;-140.72;100.00;59773.56;5053122;28;20394;-74
2023/10/31 11:14:41;;;;;;;;;;;;;;;-140.72;100.00;59804.06;5085862;28;19964;-74
2023/10/31 11:17:11;;;;;;;;;;;;;;;-140.72;100.00;59698.34;5052417;28;19917;-73
2023/10/31 11:19:37;;;;;;;;;;;;;;;-140.72;100.00;59649.56;5046709;28;20394;-75
2023/10/31 11:22:02;;;;;;;;;;;;;;;-140.72;100.00;59558.09;5051520;28;19950;-74
2023/10/31 11:24:28;;;;;;;;;;;;;;;-140.72;100.00;59472.72;5052982;28;20019;-71
2023/10/31 11:26:57;;;;;;;;;;;;;;;-140.72;100.00;59397.50;5049777;28;20128;-72
2023/10/31 11:29:23;;;;;;;;;;;;;;;-140.72;100.00;59397.50;5050750;28;20001;-72
2023/10/31 11:31:48;;;;;;;;;;;;;;;-140.72;100.00;59360.91;5045564;28;20375;-72
2023/10/31 11:34:15;;;;;;;;;;;;;;;-140.72;100.00;59304.00;5061236;28;19921;-72
2023/10/31 11:36:41;;;;;;;;;;;;;;;-140.72;100.00;59230.81;5051660;28;19917;-72
2023/10/31 11:39:11;;;;;;;;;;;;;;;-140.72;100.00;59104.81;5048257;28;19921;-72
2023/10/31 11:41:37;;;;;;;;;;;;;;;-140.72;100.00;58877.16;5054860;28;19921;-78
2023/10/31 11:44:02;;;;;;;;;;;;;;;-140.72;100.00;58716.59;5049637;28;20416;-75
2023/10/31 11:46:28;;;;;;;;;;;;;;;-140.72;100.00;58572.31;5086962;28;19921;-73
2023/10/31 11:48:57;;;;;;;;;;;;;;;-140.72;100.00;58470.69;5091111;28;19924;-73
2023/10/31 11:51:22;;;;;;;;;;;;;;;-140.72;100.00;58316.25;5052914;28;19954;-72
2023/10/31 11:53:50;;;;;;;;;;;;;;;-140.72;100.00;58226.84;5046745;28;20008;-72
2023/10/31 11:56:15;;;;;;;;;;;;;;;-140.72;100.00;58174.00;5052858;28;19921;-72
2023/10/31 11:58:41;;;;;;;;;;;;;;;-140.72;100.00;58228.88;5046483;28;19951;-73
2023/10/31 12:01:07;;;;;;;;;;;;;;;-140.72;100.00;58127.25;5040205;28;19921;-73
2023/10/31 12:03:41;;;;;;;;;;;;;;;-140.72;100.00;57983.00;5052667;28;20289;-73
2023/10/31 12:06:07;;;;;;;;;;;;;;;-140.72;100.00;57857.00;5056542;28;19925;-73
2023/10/31 12:08:33;;;;;;;;;;;;;;;-140.72;100.00;57672.09;5055013;28;20358;-72
2023/10/31 12:11:08;;;;;;;;;;;;;;;-140.72;100.00;57412.03;5057909;28;20332;-72
2023/10/31 12:13:34;;;;;;;;;;;;;;;-140.72;100.00;57184.50;5045414;28;20384;-73